Notl Virgil

*Note: All times are displayed in the local standard time of the station location.
**Rain - Equipment is designed to accurately record liquid precipitation; under conditions when precipitation is not in liquid form, the data displayed may not properly reflect rainfall values.

Date Max Temp
(°C)
Min Temp
(°C)
Avg Temp
(°C)
Rain (mm) Avg RH (%) Solar Rad (kJ/m2)
Sun, Dec 10, 2017 -0.6 -2.2 -1.4 0.0 73.4 1469.7
Sat, Dec 09, 2017 1.4 -3.7 -0.4 0.0 66.1 3130.7
Fri, Dec 08, 2017 0.7 -4.3 -1.4 0.0 65.0 1026.8
Thu, Dec 07, 2017 1.5 -3.0 -0.3 0.0 64.8 3854.6
Wed, Dec 06, 2017 4.6 -0.5 1.9 0.0 56.9 5221.6
Tue, Dec 05, 2017 11.9 1.1 8.0 4.0 72.8 756.5
Mon, Dec 04, 2017 11.6 -3.4 5.6 0.2 74.1 2906.8
DateTime Avg Temp (°C) Rain (mm) RH (%) Solar Rad (kJ/m2)
Mon, Dec 11, 2017 02:00 -2.0 0.0 86.3 0.0
Mon, Dec 11, 2017 01:00 -1.4 0.0 78.5 0.0
Mon, Dec 11, 2017 00:00 -1.8 0.0 77.0 0.0
Sun, Dec 10, 2017 23:00 -1.8 0.0 75.0 0.3
Sun, Dec 10, 2017 22:00 -1.7 0.0 74.5 0.3
Sun, Dec 10, 2017 21:00 -1.6 0.0 72.3 0.3
Sun, Dec 10, 2017 20:00 -1.5 0.0 70.0 0.6
Sun, Dec 10, 2017 19:00 -1.2 0.0 65.8 0.3
Sun, Dec 10, 2017 18:00 -1.2 0.0 64.3 0.6
Sun, Dec 10, 2017 17:00 -1.2 0.0 68.8 9.6
Sun, Dec 10, 2017 16:00 -1.0 0.0 69.3 61.4
Sun, Dec 10, 2017 15:00 -0.8 0.0 69.0 131.2
Sun, Dec 10, 2017 14:00 -0.9 0.0 68.0 181.0
Sun, Dec 10, 2017 13:00 -1.0 0.0 68.5 258.5
Sun, Dec 10, 2017 12:00 -0.9 0.0 65.0 308.3
Sun, Dec 10, 2017 11:00 -1.5 0.0 64.8 253.9
Sun, Dec 10, 2017 10:00 -1.9 0.0 67.0 169.1
Sun, Dec 10, 2017 09:00 -2.2 0.0 66.3 87.0
Sun, Dec 10, 2017 08:00 -2.1 0.0 70.5 5.8
Sun, Dec 10, 2017 07:00 -1.6 0.0 76.5 0.3
Sun, Dec 10, 2017 06:00 -1.0 0.0 73.0 0.3
Sun, Dec 10, 2017 05:00 -0.9 0.0 80.5 0.3
Sun, Dec 10, 2017 04:00 -1.7 0.0 91.0 0.0
Sun, Dec 10, 2017 03:00 -1.8 0.0 89.0 0.0
Sun, Dec 10, 2017 02:00 -1.9 0.0 88.0 0.3
Sun, Dec 10, 2017 01:00 -1.7 0.0 88.8 0.3
Sun, Dec 10, 2017 00:00 -2.9 0.0 92.5 0.6
Sat, Dec 09, 2017 23:00 -3.5 0.0 90.8 0.0
Sat, Dec 09, 2017 22:00 -2.2 0.0 83.8 0.0
Sat, Dec 09, 2017 21:00 -1.1 0.0 74.8 0.0
Sat, Dec 09, 2017 20:00 -0.3 0.0 67.5 0.3
Sat, Dec 09, 2017 19:00 -0.8 0.0 67.5 1.5
Sat, Dec 09, 2017 18:00 -0.9 0.0 67.3 0.6
Sat, Dec 09, 2017 17:00 0.2 0.0 58.0 26.0
Sat, Dec 09, 2017 16:00 1.1 0.0 54.0 151.1
Sat, Dec 09, 2017 15:00 1.2 0.0 52.0 306.8
Sat, Dec 09, 2017 14:00 1.2 0.0 52.0 476.2
Sat, Dec 09, 2017 13:00 1.2 0.0 53.8 438.4
Sat, Dec 09, 2017 12:00 1.2 0.0 54.8 566.4
Sat, Dec 09, 2017 11:00 0.7 0.0 60.3 509.0
Sat, Dec 09, 2017 10:00 -0.4 0.0 65.0 440.3
Sat, Dec 09, 2017 09:00 -1.7 0.0 71.0 201.2
Sat, Dec 09, 2017 08:00 -1.4 0.0 74.3 7.8
Sat, Dec 09, 2017 07:00 -0.3 0.0 75.0 0.9
Sat, Dec 09, 2017 06:00 -0.2 0.0 73.5 1.2
Sat, Dec 09, 2017 05:00 -0.4 0.0 64.0 0.3
Sat, Dec 09, 2017 04:00 -0.6 0.0 60.0 0.9
Sat, Dec 09, 2017 03:00 -0.5 0.0 58.3 0.6


asterix Register now to access more data! asterix